sensor_id;sensor_type;location;lat;lon;timestamp;P1;durP1;ratioP1;P2;durP2;ratioP2
61638;SDS011;47544;52.484;4.658;2022-10-17T00:00:00;12.00;;;6.40;;
61638;SDS011;47544;52.484;4.658;2022-10-17T00:00:11;11.73;;;6.65;;
61638;SDS011;47544;52.484;4.658;2022-10-17T00:00:22;11.60;;;6.65;;
61638;SDS011;47544;52.484;4.658;2022-10-17T00:00:33;10.57;;;6.47;;
61638;SDS011;47544;52.484;4.658;2022-10-17T00:00:52;10.45;;;6.50;;
61638;SDS011;47544;52.484;4.658;2022-10-17T00:01:03;11.70;;;6.53;;
61638;SDS011;47544;52.484;4.658;2022-10-17T00:01:15;11.60;;;6.40;;
61638;SDS011;47544;52.484;4.658;2022-10-17T00:01:26;12.77;;;6.40;;
61638;SDS011;47544;52.484;4.658;2022-10-17T00:01:37;12.80;;;6.65;;
61638;SDS011;47544;52.484;4.658;2022-10-17T00:01:56;12.52;;;6.60;;
61638;SDS011;47544;52.484;4.658;2022-10-17T00:02:09;12.77;;;6.18;;
61638;SDS011;47544;52.484;4.658;2022-10-17T00:02:20;12.57;;;6.38;;
61638;SDS011;47544;52.484;4.658;2022-10-17T00:02:31;12.85;;;6.40;;
61638;SDS011;47544;52.484;4.658;2022-10-17T00:02:42;12.73;;;6.53;;
61638;SDS011;47544;52.484;4.658;2022-10-17T00:02:55;12.88;;;6.60;;
61638;SDS011;47544;52.484;4.658;2022-10-17T00:03:07;13.20;;;6.95;;
61638;SDS011;47544;52.484;4.658;2022-10-17T00:03:18;11.93;;;7.00;;
61638;SDS011;47544;52.484;4.658;2022-10-17T00:03:30;11.95;;;6.85;;
61638;SDS011;47544;52.484;4.658;2022-10-17T00:03:41;12.75;;;6.80;;
61638;SDS011;47544;52.484;4.658;2022-10-17T00:03:52;13.82;;;6.80;;
61638;SDS011;47544;52.484;4.658;2022-10-17T00:04:03;12.65;;;6.55;;
61638;SDS011;47544;52.484;4.658;2022-10-17T00:04:15;11.25;;;6.40;;
61638;SDS011;47544;52.484;4.658;2022-10-17T00:04:26;11.18;;;6.50;;
61638;SDS011;47544;52.484;4.658;2022-10-17T00:04:37;12.52;;;6.68;;
61638;SDS011;47544;52.484;4.658;2022-10-17T00:04:49;12.35;;;6.60;;
61638;SDS011;47544;52.484;4.658;2022-10-17T00:05:00;14.52;;;6.80;;
61638;SDS011;47544;52.484;4.658;2022-10-17T00:05:12;13.88;;;6.88;;
61638;SDS011;47544;52.484;4.658;2022-10-17T00:05:23;13.98;;;6.90;;
61638;SDS011;47544;52.484;4.658;2022-10-17T00:05:39;13.07;;;6.93;;
61638;SDS011;47544;52.484;4.658;2022-10-17T00:05:51;12.48;;;7.03;;
61638;SDS011;47544;52.484;4.658;2022-10-17T00:06:05;12.43;;;6.95;;
61638;SDS011;47544;52.484;4.658;2022-10-17T00:06:18;13.23;;;6.82;;
61638;SDS011;47544;52.484;4.658;2022-10-17T00:06:29;12.90;;;6.80;;
61638;SDS011;47544;52.484;4.658;2022-10-17T00:06:40;12.55;;;6.90;;
61638;SDS011;47544;52.484;4.658;2022-10-17T00:06:51;12.20;;;6.72;;
61638;SDS011;47544;52.484;4.658;2022-10-17T00:07:03;11.95;;;6.80;;
61638;SDS011;47544;52.484;4.658;2022-10-17T00:07:14;13.40;;;6.88;;
61638;SDS011;47544;52.484;4.658;2022-10-17T00:07:25;13.35;;;7.00;;
61638;SDS011;47544;52.484;4.658;2022-10-17T00:07:35;13.98;;;7.18;;
61638;SDS011;47544;52.484;4.658;2022-10-17T00:07:46;13.20;;;7.37;;
61638;SDS011;47544;52.484;4.658;2022-10-17T00:07:57;13.20;;;7.13;;
61638;SDS011;47544;52.484;4.658;2022-10-17T00:08:09;12.70;;;6.93;;
61638;SDS011;47544;52.484;4.658;2022-10-17T00:08:20;13.30;;;7.00;;
61638;SDS011;47544;52.484;4.658;2022-10-17T00:08:32;13.43;;;7.13;;
61638;SDS011;47544;52.484;4.658;2022-10-17T00:08:43;13.77;;;7.30;;
61638;SDS011;47544;52.484;4.658;2022-10-17T00:08:54;13.68;;;7.38;;
61638;SDS011;47544;52.484;4.658;2022-10-17T00:09:05;13.32;;;7.40;;
61638;SDS011;47544;52.484;4.658;2022-10-17T00:09:16;14.00;;;7.30;;
61638;SDS011;47544;52.484;4.658;2022-10-17T00:09:27;13.95;;;7.18;;
61638;SDS011;47544;52.484;4.658;2022-10-17T00:09:41;13.18;;;6.85;;
61638;SDS011;47544;52.484;4.658;2022-10-17T00:09:54;14.45;;;6.70;;
61638;SDS011;47544;52.484;4.658;2022-10-17T00:10:06;15.70;;;6.93;;
61638;SDS011;47544;52.484;4.658;2022-10-17T00:10:17;15.45;;;7.38;;
61638;SDS011;47544;52.484;4.658;2022-10-17T00:10:28;12.52;;;7.45;;
61638;SDS011;47544;52.484;4.658;2022-10-17T00:10:54;13.80;;;7.30;;
61638;SDS011;47544;52.484;4.658;2022-10-17T00:11:05;15.07;;;7.15;;
61638;SDS011;47544;52.484;4.658;2022-10-17T00:11:18;15.13;;;7.03;;
61638;SDS011;47544;52.484;4.658;2022-10-17T00:11:30;14.18;;;7.22;;
61638;SDS011;47544;52.484;4.658;2022-10-17T00:11:42;13.23;;;7.30;;
61638;SDS011;47544;52.484;4.658;2022-10-17T00:11:55;14.20;;;7.13;;
61638;SDS011;47544;52.484;4.658;2022-10-17T00:12:06;15.02;;;7.20;;
61638;SDS011;47544;52.484;4.658;2022-10-17T00:12:18;14.27;;;7.20;;
61638;SDS011;47544;52.484;4.658;2022-10-17T00:12:30;14.85;;;7.20;;
61638;SDS011;47544;52.484;4.658;2022-10-17T00:12:42;12.57;;;7.20;;
61638;SDS011;47544;52.484;4.658;2022-10-17T00:12:53;12.13;;;7.28;;
61638;SDS011;47544;52.484;4.658;2022-10-17T00:13:06;12.60;;;7.20;;
61638;SDS011;47544;52.484;4.658;2022-10-17T00:13:17;12.52;;;7.30;;
61638;SDS011;47544;52.484;4.658;2022-10-17T00:13:28;14.30;;;7.30;;
61638;SDS011;47544;52.484;4.658;2022-10-17T00:13:42;14.57;;;7.40;;
61638;SDS011;47544;52.484;4.658;2022-10-17T00:13:54;13.00;;;7.28;;
61638;SDS011;47544;52.484;4.658;2022-10-17T00:14:11;13.73;;;7.22;;
61638;SDS011;47544;52.484;4.658;2022-10-17T00:14:22;13.52;;;7.43;;
61638;SDS011;47544;52.484;4.658;2022-10-17T00:14:34;12.90;;;7.57;;
61638;SDS011;47544;52.484;4.658;2022-10-17T00:14:45;13.85;;;7.60;;
61638;SDS011;47544;52.484;4.658;2022-10-17T00:14:56;13.63;;;7.65;;
61638;SDS011;47544;52.484;4.658;2022-10-17T00:15:07;13.60;;;7.63;;
61638;SDS011;47544;52.484;4.658;2022-10-17T00:15:19;12.88;;;7.72;;
61638;SDS011;47544;52.484;4.658;2022-10-17T00:15:30;12.95;;;7.88;;
61638;SDS011;47544;52.484;4.658;2022-10-17T00:15:42;13.50;;;7.85;;
61638;SDS011;47544;52.484;4.658;2022-10-17T00:15:56;12.38;;;7.70;;
61638;SDS011;47544;52.484;4.658;2022-10-17T00:16:08;12.63;;;7.53;;
61638;SDS011;47544;52.484;4.658;2022-10-17T00:16:22;13.10;;;7.40;;
61638;SDS011;47544;52.484;4.658;2022-10-17T00:16:34;12.65;;;7.43;;
61638;SDS011;47544;52.484;4.658;2022-10-17T00:16:46;13.20;;;7.68;;
61638;SDS011;47544;52.484;4.658;2022-10-17T00:16:57;13.97;;;7.50;;
61638;SDS011;47544;52.484;4.658;2022-10-17T00:17:10;13.90;;;7.43;;
61638;SDS011;47544;52.484;4.658;2022-10-17T00:17:21;14.48;;;7.43;;
61638;SDS011;47544;52.484;4.658;2022-10-17T00:17:32;12.65;;;7.53;;
61638;SDS011;47544;52.484;4.658;2022-10-17T00:17:45;12.05;;;7.47;;
61638;SDS011;47544;52.484;4.658;2022-10-17T00:17:55;11.85;;;7.38;;
61638;SDS011;47544;52.484;4.658;2022-10-17T00:18:06;12.90;;;7.50;;
61638;SDS011;47544;52.484;4.658;2022-10-17T00:18:17;14.50;;;7.57;;
61638;SDS011;47544;52.484;4.658;2022-10-17T00:18:29;14.50;;;7.72;;
61638;SDS011;47544;52.484;4.658;2022-10-17T00:18:40;13.95;;;7.75;;
61638;SDS011;47544;52.484;4.658;2022-10-17T00:18:51;13.23;;;7.88;;
61638;SDS011;47544;52.484;4.658;2022-10-17T00:19:04;14.48;;;7.75;;
61638;SDS011;47544;52.484;4.658;2022-10-17T00:19:16;15.48;;;7.65;;
61638;SDS011;47544;52.484;4.658;2022-10-17T00:19:27;14.40;;;7.30;;
61638;SDS011;47544;52.484;4.658;2022-10-17T00:19:38;13.68;;;7.13;;
61638;SDS011;47544;52.484;4.658;2022-10-17T00:19:49;11.80;;;7.22;;
61638;SDS011;47544;52.484;4.658;2022-10-17T00:20:00;12.52;;;7.50;;
61638;SDS011;47544;52.484;4.658;2022-10-17T00:20:11;13.10;;;7.60;;
61638;SDS011;47544;52.484;4.658;2022-10-17T00:20:22;13.57;;;7.53;;
61638;SDS011;47544;52.484;4.658;2022-10-17T00:20:33;13.75;;;7.85;;
61638;SDS011;47544;52.484;4.658;2022-10-17T00:20:44;13.30;;;8.00;;
61638;SDS011;47544;52.484;4.658;2022-10-17T00:20:57;13.15;;;7.93;;
61638;SDS011;47544;52.484;4.658;2022-10-17T00:21:13;14.15;;;7.47;;
61638;SDS011;47544;52.484;4.658;2022-10-17T00:21:26;14.63;;;7.30;;
61638;SDS011;47544;52.484;4.658;2022-10-17T00:21:37;13.95;;;7.18;;
61638;SDS011;47544;52.484;4.658;2022-10-17T00:21:48;12.95;;;7.30;;
61638;SDS011;47544;52.484;4.658;2022-10-17T00:22:00;13.05;;;7.57;;
61638;SDS011;47544;52.484;4.658;2022-10-17T00:22:11;13.23;;;7.90;;
61638;SDS011;47544;52.484;4.658;2022-10-17T00:22:23;12.98;;;7.70;;
61638;SDS011;47544;52.484;4.658;2022-10-17T00:22:35;12.68;;;7.38;;
61638;SDS011;47544;52.484;4.658;2022-10-17T00:22:46;13.48;;;7.10;;
61638;SDS011;47544;52.484;4.658;2022-10-17T00:22:57;14.73;;;7.37;;
61638;SDS011;47544;52.484;4.658;2022-10-17T00:23:08;14.48;;;7.57;;
61638;SDS011;47544;52.484;4.658;2022-10-17T00:23:32;14.60;;;7.60;;
61638;SDS011;47544;52.484;4.658;2022-10-17T00:23:49;14.55;;;7.30;;
61638;SDS011;47544;52.484;4.658;2022-10-17T00:24:01;14.07;;;7.20;;
61638;SDS011;47544;52.484;4.658;2022-10-17T00:24:12;13.98;;;7.47;;
61638;SDS011;47544;52.484;4.658;2022-10-17T00:24:23;13.33;;;7.70;;
61638;SDS011;47544;52.484;4.658;2022-10-17T00:24:34;13.85;;;7.75;;
61638;SDS011;47544;52.484;4.658;2022-10-17T00:24:55;14.23;;;7.30;;
61638;SDS011;47544;52.484;4.658;2022-10-17T00:25:07;13.73;;;7.30;;
61638;SDS011;47544;52.484;4.658;2022-10-17T00:25:18;14.27;;;7.35;;
61638;SDS011;47544;52.484;4.658;2022-10-17T00:25:31;14.18;;;7.57;;
61638;SDS011;47544;52.484;4.658;2022-10-17T00:25:43;15.18;;;7.63;;
61638;SDS011;47544;52.484;4.658;2022-10-17T00:25:57;15.15;;;7.45;;
61638;SDS011;47544;52.484;4.658;2022-10-17T00:26:08;14.35;;;7.38;;
61638;SDS011;47544;52.484;4.658;2022-10-17T00:26:22;12.50;;;7.47;;
61638;SDS011;47544;52.484;4.658;2022-10-17T00:26:34;12.65;;;7.80;;
61638;SDS011;47544;52.484;4.658;2022-10-17T00:26:46;13.10;;;7.78;;
61638;SDS011;47544;52.484;4.658;2022-10-17T00:26:57;14.43;;;8.00;;
61638;SDS011;47544;52.484;4.658;2022-10-17T00:27:08;13.07;;;7.90;;
61638;SDS011;47544;52.484;4.658;2022-10-17T00:27:19;13.45;;;7.82;;
61638;SDS011;47544;52.484;4.658;2022-10-17T00:27:30;14.13;;;7.65;;
61638;SDS011;47544;52.484;4.658;2022-10-17T00:27:45;13.77;;;7.90;;
61638;SDS011;47544;52.484;4.658;2022-10-17T00:27:56;12.57;;;8.00;;
61638;SDS011;47544;52.484;4.658;2022-10-17T00:28:07;12.73;;;8.00;;
61638;SDS011;47544;52.484;4.658;2022-10-17T00:28:20;13.00;;;8.00;;
61638;SDS011;47544;52.484;4.658;2022-10-17T00:28:32;14.82;;;7.93;;
61638;SDS011;47544;52.484;4.658;2022-10-17T00:28:44;14.18;;;7.82;;
61638;SDS011;47544;52.484;4.658;2022-10-17T00:28:57;12.95;;;7.68;;
61638;SDS011;47544;52.484;4.658;2022-10-17T00:29:08;12.65;;;7.72;;
61638;SDS011;47544;52.484;4.658;2022-10-17T00:29:21;15.05;;;8.18;;
61638;SDS011;47544;52.484;4.658;2022-10-17T00:29:32;15.45;;;8.00;;
61638;SDS011;47544;52.484;4.658;2022-10-17T00:29:47;14.45;;;8.07;;
61638;SDS011;47544;52.484;4.658;2022-10-17T00:29:58;14.68;;;8.05;;
61638;SDS011;47544;52.484;4.658;2022-10-17T00:30:09;13.90;;;7.93;;
61638;SDS011;47544;52.484;4.658;2022-10-17T00:30:23;14.13;;;7.82;;
61638;SDS011;47544;52.484;4.658;2022-10-17T00:30:37;13.98;;;7.68;;
61638;SDS011;47544;52.484;4.658;2022-10-17T00:30:53;14.35;;;7.63;;
61638;SDS011;47544;52.484;4.658;2022-10-17T00:31:05;14.55;;;8.00;;
61638;SDS011;47544;52.484;4.658;2022-10-17T00:31:17;14.32;;;8.02;;
61638;SDS011;47544;52.484;4.658;2022-10-17T00:31:30;13.57;;;7.72;;
61638;SDS011;47544;52.484;4.658;2022-10-17T00:31:41;11.60;;;7.60;;
61638;SDS011;47544;52.484;4.658;2022-10-17T00:31:53;13.20;;;7.90;;
61638;SDS011;47544;52.484;4.658;2022-10-17T00:32:05;13.98;;;8.05;;
61638;SDS011;47544;52.484;4.658;2022-10-17T00:32:16;13.30;;;8.00;;
61638;SDS011;47544;52.484;4.658;2022-10-17T00:32:31;12.60;;;8.02;;
61638;SDS011;47544;52.484;4.658;2022-10-17T00:32:42;13.38;;;8.00;;
61638;SDS011;47544;52.484;4.658;2022-10-17T00:32:53;13.20;;;8.30;;
61638;SDS011;47544;52.484;4.658;2022-10-17T00:33:04;12.38;;;8.05;;
61638;SDS011;47544;52.484;4.658;2022-10-17T00:33:15;12.18;;;8.00;;
61638;SDS011;47544;52.484;4.658;2022-10-17T00:33:27;12.90;;;7.85;;
61638;SDS011;47544;52.484;4.658;2022-10-17T00:33:38;12.30;;;7.72;;
61638;SDS011;47544;52.484;4.658;2022-10-17T00:33:49;13.65;;;7.95;;
61638;SDS011;47544;52.484;4.658;2022-10-17T00:34:07;14.38;;;8.25;;
61638;SDS011;47544;52.484;4.658;2022-10-17T00:34:18;12.68;;;8.00;;
61638;SDS011;47544;52.484;4.658;2022-10-17T00:34:29;12.35;;;7.82;;
61638;SDS011;47544;52.484;4.658;2022-10-17T00:34:40;11.95;;;7.63;;
61638;SDS011;47544;52.484;4.658;2022-10-17T00:34:55;13.15;;;7.68;;
61638;SDS011;47544;52.484;4.658;2022-10-17T00:35:07;13.73;;;8.23;;
61638;SDS011;47544;52.484;4.658;2022-10-17T00:35:24;14.40;;;8.07;;
61638;SDS011;47544;52.484;4.658;2022-10-17T00:35:35;12.40;;;7.82;;
61638;SDS011;47544;52.484;4.658;2022-10-17T00:35:46;12.25;;;7.97;;
61638;SDS011;47544;52.484;4.658;2022-10-17T00:36:04;12.23;;;8.10;;
61638;SDS011;47544;52.484;4.658;2022-10-17T00:36:16;13.88;;;8.18;;
61638;SDS011;47544;52.484;4.658;2022-10-17T00:36:29;13.60;;;8.18;;
61638;SDS011;47544;52.484;4.658;2022-10-17T00:36:42;13.15;;;7.97;;
61638;SDS011;47544;52.484;4.658;2022-10-17T00:36:53;14.18;;;7.95;;
61638;SDS011;47544;52.484;4.658;2022-10-17T00:37:04;13.75;;;8.05;;
61638;SDS011;47544;52.484;4.658;2022-10-17T00:37:15;14.45;;;8.10;;
61638;SDS011;47544;52.484;4.658;2022-10-17T00:37:26;13.85;;;7.90;;
61638;SDS011;47544;52.484;4.658;2022-10-17T00:37:37;13.30;;;7.72;;
61638;SDS011;47544;52.484;4.658;2022-10-17T00:37:49;13.65;;;7.90;;
61638;SDS011;47544;52.484;4.658;2022-10-17T00:38:00;14.95;;;8.20;;
61638;SDS011;47544;52.484;4.658;2022-10-17T00:38:11;16.13;;;8.10;;
61638;SDS011;47544;52.484;4.658;2022-10-17T00:38:24;14.88;;;7.88;;
61638;SDS011;47544;52.484;4.658;2022-10-17T00:38:36;12.68;;;7.75;;
61638;SDS011;47544;52.484;4.658;2022-10-17T00:38:49;11.77;;;8.00;;
61638;SDS011;47544;52.484;4.658;2022-10-17T00:39:00;12.45;;;8.10;;
61638;SDS011;47544;52.484;4.658;2022-10-17T00:39:12;12.15;;;8.18;;
61638;SDS011;47544;52.484;4.658;2022-10-17T00:39:23;13.32;;;8.15;;
61638;SDS011;47544;52.484;4.658;2022-10-17T00:39:38;14.05;;;8.10;;
61638;SDS011;47544;52.484;4.658;2022-10-17T00:39:50;16.08;;;8.18;;
61638;SDS011;47544;52.484;4.658;2022-10-17T00:40:01;17.00;;;8.27;;
61638;SDS011;47544;52.484;4.658;2022-10-17T00:40:14;15.65;;;8.30;;
61638;SDS011;47544;52.484;4.658;2022-10-17T00:40:25;13.80;;;8.07;;
61638;SDS011;47544;52.484;4.658;2022-10-17T00:40:38;13.02;;;8.00;;
61638;SDS011;47544;52.484;4.658;2022-10-17T00:40:51;13.35;;;8.00;;
61638;SDS011;47544;52.484;4.658;2022-10-17T00:41:05;12.75;;;8.27;;
61638;SDS011;47544;52.484;4.658;2022-10-17T00:41:17;13.20;;;8.30;;
61638;SDS011;47544;52.484;4.658;2022-10-17T00:41:30;12.68;;;7.93;;
61638;SDS011;47544;52.484;4.658;2022-10-17T00:41:43;11.90;;;7.70;;
61638;SDS011;47544;52.484;4.658;2022-10-17T00:41:54;13.63;;;7.72;;
61638;SDS011;47544;52.484;4.658;2022-10-17T00:42:05;15.23;;;7.85;;
61638;SDS011;47544;52.484;4.658;2022-10-17T00:42:16;16.17;;;7.97;;
61638;SDS011;47544;52.484;4.658;2022-10-17T00:42:29;14.98;;;8.20;;
61638;SDS011;47544;52.484;4.658;2022-10-17T00:42:40;14.23;;;8.27;;
61638;SDS011;47544;52.484;4.658;2022-10-17T00:42:52;14.50;;;8.25;;
61638;SDS011;47544;52.484;4.658;2022-10-17T00:43:03;12.95;;;8.02;;
61638;SDS011;47544;52.484;4.658;2022-10-17T00:43:14;11.65;;;7.55;;
61638;SDS011;47544;52.484;4.658;2022-10-17T00:43:25;12.43;;;7.50;;
61638;SDS011;47544;52.484;4.658;2022-10-17T00:43:50;13.73;;;7.63;;
61638;SDS011;47544;52.484;4.658;2022-10-17T00:44:05;12.63;;;7.72;;
61638;SDS011;47544;52.484;4.658;2022-10-17T00:44:58;11.90;;;7.90;;
61638;SDS011;47544;52.484;4.658;2022-10-17T00:45:18;11.88;;;7.90;;
61638;SDS011;47544;52.484;4.658;2022-10-17T00:45:33;13.90;;;8.05;;
61638;SDS011;47544;52.484;4.658;2022-10-17T00:45:45;12.85;;;8.10;;
61638;SDS011;47544;52.484;4.658;2022-10-17T00:45:56;12.48;;;7.88;;
61638;SDS011;47544;52.484;4.658;2022-10-17T00:46:07;11.95;;;7.80;;
61638;SDS011;47544;52.484;4.658;2022-10-17T00:46:20;12.48;;;8.07;;
61638;SDS011;47544;52.484;4.658;2022-10-17T00:46:32;12.60;;;8.05;;
61638;SDS011;47544;52.484;4.658;2022-10-17T00:46:43;13.65;;;7.78;;
61638;SDS011;47544;52.484;4.658;2022-10-17T00:46:55;12.68;;;7.60;;
61638;SDS011;47544;52.484;4.658;2022-10-17T00:47:07;13.15;;;7.85;;
61638;SDS011;47544;52.484;4.658;2022-10-17T00:47:20;13.73;;;7.93;;
61638;SDS011;47544;52.484;4.658;2022-10-17T00:47:31;12.57;;;8.00;;
61638;SDS011;47544;52.484;4.658;2022-10-17T00:47:44;11.40;;;8.10;;
61638;SDS011;47544;52.484;4.658;2022-10-17T00:47:58;11.93;;;8.00;;
61638;SDS011;47544;52.484;4.658;2022-10-17T00:48:10;12.75;;;7.85;;
61638;SDS011;47544;52.484;4.658;2022-10-17T00:48:22;13.63;;;7.60;;
61638;SDS011;47544;52.484;4.658;2022-10-17T00:48:40;14.35;;;7.50;;
61638;SDS011;47544;52.484;4.658;2022-10-17T00:48:51;13.07;;;7.57;;
61638;SDS011;47544;52.484;4.658;2022-10-17T00:49:03;13.20;;;7.70;;
61638;SDS011;47544;52.484;4.658;2022-10-17T00:49:18;13.18;;;7.70;;
61638;SDS011;47544;52.484;4.658;2022-10-17T00:49:34;13.45;;;7.72;;
61638;SDS011;47544;52.484;4.658;2022-10-17T00:49:46;12.25;;;7.60;;
61638;SDS011;47544;52.484;4.658;2022-10-17T00:50:04;11.60;;;7.65;;
61638;SDS011;47544;52.484;4.658;2022-10-17T00:50:16;11.73;;;7.57;;
61638;SDS011;47544;52.484;4.658;2022-10-17T00:50:28;11.05;;;7.25;;
61638;SDS011;47544;52.484;4.658;2022-10-17T00:50:40;10.77;;;7.50;;
61638;SDS011;47544;52.484;4.658;2022-10-17T00:50:52;12.55;;;7.68;;
61638;SDS011;47544;52.484;4.658;2022-10-17T00:51:04;13.30;;;7.70;;
61638;SDS011;47544;52.484;4.658;2022-10-17T00:51:16;11.90;;;7.90;;
61638;SDS011;47544;52.484;4.658;2022-10-17T00:51:32;12.25;;;8.07;;
61638;SDS011;47544;52.484;4.658;2022-10-17T00:51:44;13.43;;;8.10;;
61638;SDS011;47544;52.484;4.658;2022-10-17T00:51:57;13.63;;;7.90;;
61638;SDS011;47544;52.484;4.658;2022-10-17T00:52:10;11.52;;;7.65;;
61638;SDS011;47544;52.484;4.658;2022-10-17T00:52:23;10.93;;;7.68;;
61638;SDS011;47544;52.484;4.658;2022-10-17T00:52:37;12.25;;;7.85;;
61638;SDS011;47544;52.484;4.658;2022-10-17T00:52:48;12.98;;;7.70;;
61638;SDS011;47544;52.484;4.658;2022-10-17T00:53:01;11.65;;;7.63;;
61638;SDS011;47544;52.484;4.658;2022-10-17T00:53:12;11.48;;;7.60;;
61638;SDS011;47544;52.484;4.658;2022-10-17T00:53:25;11.40;;;7.63;;
61638;SDS011;47544;52.484;4.658;2022-10-17T00:53:36;11.15;;;7.72;;
61638;SDS011;47544;52.484;4.658;2022-10-17T00:53:49;13.10;;;7.80;;
61638;SDS011;47544;52.484;4.658;2022-10-17T00:54:01;14.07;;;7.95;;
61638;SDS011;47544;52.484;4.658;2022-10-17T00:54:15;13.13;;;8.20;;
61638;SDS011;47544;52.484;4.658;2022-10-17T00:54:29;11.77;;;8.32;;
61638;SDS011;47544;52.484;4.658;2022-10-17T00:54:44;12.80;;;8.10;;
61638;SDS011;47544;52.484;4.658;2022-10-17T00:54:57;13.93;;;7.90;;
61638;SDS011;47544;52.484;4.658;2022-10-17T00:55:11;12.60;;;7.65;;
61638;SDS011;47544;52.484;4.658;2022-10-17T00:55:25;11.75;;;7.63;;
61638;SDS011;47544;52.484;4.658;2022-10-17T00:55:41;12.68;;;7.63;;
61638;SDS011;47544;52.484;4.658;2022-10-17T00:55:53;13.68;;;7.88;;
61638;SDS011;47544;52.484;4.658;2022-10-17T00:56:04;12.52;;;8.00;;
61638;SDS011;47544;52.484;4.658;2022-10-17T00:56:17;13.00;;;8.13;;
61638;SDS011;47544;52.484;4.658;2022-10-17T00:56:28;12.77;;;8.25;;
61638;SDS011;47544;52.484;4.658;2022-10-17T00:56:41;12.82;;;8.25;;
61638;SDS011;47544;52.484;4.658;2022-10-17T00:56:54;12.05;;;7.95;;
61638;SDS011;47544;52.484;4.658;2022-10-17T00:57:06;11.85;;;7.68;;
61638;SDS011;47544;52.484;4.658;2022-10-17T00:57:17;12.77;;;7.93;;
61638;SDS011;47544;52.484;4.658;2022-10-17T00:57:29;13.45;;;8.10;;
61638;SDS011;47544;52.484;4.658;2022-10-17T00:57:41;12.80;;;8.15;;
61638;SDS011;47544;52.484;4.658;2022-10-17T00:57:54;12.82;;;8.18;;
61638;SDS011;47544;52.484;4.658;2022-10-17T00:58:06;13.40;;;8.20;;
61638;SDS011;47544;52.484;4.658;2022-10-17T00:58:17;12.27;;;8.02;;
61638;SDS011;47544;52.484;4.658;2022-10-17T00:58:28;12.70;;;8.07;;
61638;SDS011;47544;52.484;4.658;2022-10-17T00:58:42;12.55;;;8.00;;
61638;SDS011;47544;52.484;4.658;2022-10-17T00:58:53;12.88;;;7.97;;
61638;SDS011;47544;52.484;4.658;2022-10-17T00:59:05;12.55;;;8.23;;
61638;SDS011;47544;52.484;4.658;2022-10-17T00:59:19;12.25;;;8.10;;
61638;SDS011;47544;52.484;4.658;2022-10-17T00:59:31;11.88;;;8.10;;
61638;SDS011;47544;52.484;4.658;2022-10-17T00:59:42;11.20;;;8.07;;
61638;SDS011;47544;52.484;4.658;2022-10-17T00:59:57;11.90;;;7.93;;
61638;SDS011;47544;52.484;4.658;2022-10-17T01:00:09;13.20;;;8.13;;
61638;SDS011;47544;52.484;4.658;2022-10-17T01:00:21;14.45;;;8.50;;
61638;SDS011;47544;52.484;4.658;2022-10-17T01:00:32;13.75;;;8.30;;
61638;SDS011;47544;52.484;4.658;2022-10-17T01:00:43;13.40;;;8.30;;
61638;SDS011;47544;52.484;4.658;2022-10-17T01:00:56;14.73;;;8.30;;
61638;SDS011;47544;52.484;4.658;2022-10-17T01:01:07;16.23;;;8.40;;
61638;SDS011;47544;52.484;4.658;2022-10-17T01:01:18;15.63;;;8.18;;
61638;SDS011;47544;52.484;4.658;2022-10-17T01:01:31;14.05;;;8.00;;
61638;SDS011;47544;52.484;4.658;2022-10-17T01:01:42;12.32;;;8.15;;
61638;SDS011;47544;52.484;4.658;2022-10-17T01:01:59;11.80;;;8.20;;
61638;SDS011;47544;52.484;4.658;2022-10-17T01:02:11;11.05;;;8.27;;
61638;SDS011;47544;52.484;4.658;2022-10-17T01:02:24;11.10;;;8.23;;
61638;SDS011;47544;52.484;4.658;2022-10-17T01:02:36;12.20;;;8.38;;
61638;SDS011;47544;52.484;4.658;2022-10-17T01:02:47;12.57;;;8.38;;
61638;SDS011;47544;52.484;4.658;2022-10-17T01:03:02;13.40;;;8.45;;
61638;SDS011;47544;52.484;4.658;2022-10-17T01:03:16;12.90;;;8.23;;
61638;SDS011;47544;52.484;4.658;2022-10-17T01:03:27;13.00;;;8.27;;
61638;SDS011;47544;52.484;4.658;2022-10-17T01:03:38;12.95;;;8.23;;
61638;SDS011;47544;52.484;4.658;2022-10-17T01:03:49;13.38;;;8.30;;
61638;SDS011;47544;52.484;4.658;2022-10-17T01:04:03;12.93;;;8.38;;
61638;SDS011;47544;52.484;4.658;2022-10-17T01:04:14;13.38;;;8.20;;
61638;SDS011;47544;52.484;4.658;2022-10-17T01:04:25;12.95;;;8.15;;
61638;SDS011;47544;52.484;4.658;2022-10-17T01:04:38;12.52;;;8.18;;
61638;SDS011;47544;52.484;4.658;2022-10-17T01:04:50;12.35;;;8.30;;
61638;SDS011;47544;52.484;4.658;2022-10-17T01:05:01;12.88;;;8.38;;
61638;SDS011;47544;52.484;4.658;2022-10-17T01:05:13;12.38;;;8.43;;
61638;SDS011;47544;52.484;4.658;2022-10-17T01:05:24;11.75;;;8.35;;
61638;SDS011;47544;52.484;4.658;2022-10-17T01:05:40;12.52;;;8.57;;
61638;SDS011;47544;52.484;4.658;2022-10-17T01:05:54;14.38;;;8.88;;
61638;SDS011;47544;52.484;4.658;2022-10-17T01:06:05;14.25;;;8.85;;
61638;SDS011;47544;52.484;4.658;2022-10-17T01:06:16;14.07;;;8.80;;
61638;SDS011;47544;52.484;4.658;2022-10-17T01:06:28;13.93;;;8.90;;
61638;SDS011;47544;52.484;4.658;2022-10-17T01:06:41;13.63;;;9.18;;
61638;SDS011;47544;52.484;4.658;2022-10-17T01:06:52;15.13;;;9.25;;
61638;SDS011;47544;52.484;4.658;2022-10-17T01:07:03;14.95;;;9.23;;
61638;SDS011;47544;52.484;4.658;2022-10-17T01:07:14;14.48;;;9.25;;
61638;SDS011;47544;52.484;4.658;2022-10-17T01:07:25;12.60;;;9.02;;
61638;SDS011;47544;52.484;4.658;2022-10-17T01:07:37;11.07;;;8.70;;
61638;SDS011;47544;52.484;4.658;2022-10-17T01:07:50;13.60;;;9.20;;
61638;SDS011;47544;52.484;4.658;2022-10-17T01:08:02;14.13;;;9.02;;
61638;SDS011;47544;52.484;4.658;2022-10-17T01:08:13;13.38;;;8.90;;
61638;SDS011;47544;52.484;4.658;2022-10-17T01:08:24;14.15;;;9.00;;
61638;SDS011;47544;52.484;4.658;2022-10-17T01:08:35;13.50;;;9.20;;
61638;SDS011;47544;52.484;4.658;2022-10-17T01:08:54;13.68;;;9.48;;
61638;SDS011;47544;52.484;4.658;2022-10-17T01:09:06;15.10;;;9.68;;
61638;SDS011;47544;52.484;4.658;2022-10-17T01:09:19;14.13;;;9.45;;
61638;SDS011;47544;52.484;4.658;2022-10-17T01:09:30;13.85;;;9.40;;
61638;SDS011;47544;52.484;4.658;2022-10-17T01:09:45;13.95;;;9.55;;
61638;SDS011;47544;52.484;4.658;2022-10-17T01:09:56;14.40;;;9.70;;
61638;SDS011;47544;52.484;4.658;2022-10-17T01:10:11;13.60;;;9.57;;
61638;SDS011;47544;52.484;4.658;2022-10-17T01:10:26;13.05;;;9.30;;
61638;SDS011;47544;52.484;4.658;2022-10-17T01:10:43;13.93;;;9.02;;
61638;SDS011;47544;52.484;4.658;2022-10-17T01:10:57;15.43;;;9.60;;
61638;SDS011;47544;52.484;4.658;2022-10-17T01:11:12;14.38;;;9.63;;
61638;SDS011;47544;52.484;4.658;2022-10-17T01:11:30;13.70;;;9.63;;
61638;SDS011;47544;52.484;4.658;2022-10-17T01:11:44;13.27;;;9.95;;
61638;SDS011;47544;52.484;4.658;2022-10-17T01:12:01;13.65;;;9.75;;
61638;SDS011;47544;52.484;4.658;2022-10-17T01:12:21;16.45;;;9.85;;
61638;SDS011;47544;52.484;4.658;2022-10-17T01:12:40;16.23;;;10.00;;
61638;SDS011;47544;52.484;4.658;2022-10-17T01:12:57;13.43;;;9.95;;
61638;SDS011;47544;52.484;4.658;2022-10-17T01:13:12;13.05;;;10.02;;
61638;SDS011;47544;52.484;4.658;2022-10-17T01:13:33;14.25;;;9.88;;
61638;SDS011;47544;52.484;4.658;2022-10-17T01:13:48;13.48;;;10.23;;
61638;SDS011;47544;52.484;4.658;2022-10-17T01:14:05;13.98;;;10.25;;
61638;SDS011;47544;52.484;4.658;2022-10-17T01:14:20;14.35;;;10.38;;
61638;SDS011;47544;52.484;4.658;2022-10-17T01:14:36;13.75;;;10.45;;
61638;SDS011;47544;52.484;4.658;2022-10-17T01:14:56;15.85;;;10.25;;
61638;SDS011;47544;52.484;4.658;2022-10-17T01:15:11;15.80;;;10.45;;